• Join FlightAware (Why Join?)
  • Login
  • US Flag 
08:39PM EST


 

Airport Tracker/Info


-or-


 

Live Flight TrackerFlight Track Log ✈ N271AF ✈ 17-Aug-2013 ✈ KJYO - KPMH

Flight Track Log - Related Links

Times and Time Zones

All times are in EDT time to prevent confusion due to time zone crossing. See the N271AF flight status page for this flight to view local times or setup timezone preferences in your user account.

Time Position Orientation Groundspeed Altitude Reporting Facility
EDT Latitude Longitude Course Direction KTS MPH feet Rate Location/Type
06:32PM 39.0667 -77.5500 322° Northwest 83 96 900  Level Potomac TRACON
06:33PM 39.0833 -77.5667 322° Northwest 99 114 1,800 900 Climbing Potomac TRACON
06:34PM 39.1000 -77.5667 360° North 98 113 2,700 789 Climbing Potomac TRACON
06:35PM 39.1167 -77.6000 303° West 105 121 3,300 600 Climbing Potomac TRACON
06:36PM 39.1000 -77.6333 237° Southwest 101 116 3,900 500 Climbing Potomac TRACON
06:36PM 39.0939 -77.6536 249° West 101 116 4,100 205 Climbing Washington Center
06:37PM 39.0783 -77.7014 247° West 114 131 4,200 -50 Climbing Washington Center
06:38PM 39.0694 -77.7278 247° West 133 153 4,000 -50 Descending Washington Center
06:39PM 39.0497 -77.7833 245° Southwest 133 153 4,100 101 Climbing Washington Center
06:40PM 39.0389 -77.8125 244° Southwest 133 153 4,200 295 Climbing Washington Center
06:41PM 39.0256 -77.8600 250° West 133 153 4,700 446 Climbing Washington Center
06:42PM 39.0103 -77.8969 242° Southwest 133 153 5,100 450 Climbing Washington Center
06:43PM 38.9867 -77.9203 218° Southwest 110 127 5,600 500 Climbing Washington Center
06:44PM 38.9697 -77.9439 227° Southwest 110 127 6,100 500 Climbing Washington Center
06:45PM 38.9503 -77.9700 226° Southwest 100 115 6,600 513 Climbing Washington Center
06:46PM 38.9414 -77.9989 248° West 93 107 7,100 504 Climbing Washington Center
06:47PM 38.9325 -78.0333 252° West 98 113 7,600 439 Climbing Washington Center
06:48PM 38.9214 -78.0597 242° Southwest 98 113 8,000 202 Climbing Washington Center
06:49PM 38.9061 -78.0992 244° Southwest 104 120 8,000  Level Washington Center
06:50PM 38.8906 -78.1414 245° Southwest 115 132 8,000  Level Washington Center
06:51PM 38.8708 -78.1806 237° Southwest 127 146 8,000  Level Washington Center
06:52PM 38.8575 -78.2228 248° West 133 153 8,000  Level Washington Center
06:53PM 38.8586 -78.2708 272° West 133 153 8,000  Level Washington Center
06:54PM 38.8594 -78.3189 271° West 133 153 8,000  Level Washington Center
06:55PM 38.8628 -78.3669 275° West 133 153 8,000  Level Washington Center
06:56PM 38.8617 -78.4150 268° West 138 159 8,000  Level Washington Center
06:57PM 38.8625 -78.4631 271° West 143 165 8,000  Level Washington Center
06:58PM 38.8656 -78.5111 275° West 143 165 8,000  Level Washington Center
06:59PM 38.8664 -78.5592 271° West 143 165 8,000  Level Washington Center
07:00PM 38.8672 -78.6044 271° West 143 165 8,000  Level Washington Center
07:01PM 38.8725 -78.6525 278° West 143 165 8,000  Level Washington Center
07:02PM 38.8733 -78.7006 271° West 143 165 8,000  Level Washington Center
07:03PM 38.8742 -78.7486 271° West 143 165 8,000  Level Washington Center
07:04PM 38.8769 -78.7969 274° West 143 165 8,000  Level Washington Center
07:05PM 38.8797 -78.8450 274° West 143 165 8,000  Level Washington Center
07:06PM 38.8806 -78.8931 271° West 143 165 8,000  Level Washington Center
07:07PM 38.8833 -78.9411 274° West 143 165 8,000  Level Washington Center
07:08PM 38.8842 -78.9892 271° West 143 165 8,000  Level Washington Center
07:09PM 38.8850 -79.0372 271° West 143 165 8,000  Level Washington Center
07:10PM 38.8878 -79.0828 274° West 143 165 8,000  Level Washington Center
07:11PM 38.8886 -79.1253 271° West 143 165 8,000  Level Washington Center
07:12PM 38.8894 -79.1708 271° West 143 165 8,000  Level Washington Center
07:13PM 38.8922 -79.2136 275° West 138 159 8,000  Level Washington Center
07:15PM 38.8646 -79.2542 229° Southwest  Level FlightAware Approximate
07:22PM 38.8531 -79.5795 275° West  Level FlightAware Approximate
07:23PM 38.8562 -79.6255 275° West  Level FlightAware Approximate
07:24PM 38.8593 -79.6715 275° West  Level FlightAware Approximate
07:25PM 38.8623 -79.7175 275° West  Level FlightAware Approximate
07:26PM 38.8654 -79.7636 275° West  Level FlightAware Approximate
07:27PM 38.8696 -79.8094 278° West  Level FlightAware Approximate
07:28PM 38.8747 -79.8552 278° West  Level FlightAware Approximate
07:29PM 38.8797 -79.9002 278° West  Level FlightAware Approximate
07:30PM 38.8848 -79.9452 278° West  Level FlightAware Approximate
07:31PM 38.8898 -79.9903 278° West  Level FlightAware Approximate
07:32PM 38.8947 -80.0353 278° West  Level FlightAware Approximate
07:33PM 38.8997 -80.0804 278° West  Level FlightAware Approximate
07:33PM 38.9133 -80.1072 269° West 128 147 8,000  Level Indianapolis Center
07:34PM 38.8993 -80.1258 269° West  Level FlightAware Approximate
07:34PM 38.9147 -80.1522 272° West 127 146 8,100  Level Indianapolis Center
07:35PM 38.8986 -80.1713 269° West  Level FlightAware Approximate
07:35PM 38.9128 -80.1967 267° West 125 144 8,100  Level Indianapolis Center
07:36PM 38.8978 -80.2168 269° West  Level FlightAware Approximate
07:36PM 38.9131 -80.2411 270° West 125 144 8,100  Level Indianapolis Center
07:37PM 38.8970 -80.2623 269° West  Level FlightAware Approximate
07:37PM 38.9122 -80.2850 269° West 124 143 8,100  Level Indianapolis Center
07:38PM 38.8962 -80.3078 269° West  Level FlightAware Approximate
07:38PM 38.9106 -80.3294 267° West 124 143 8,100  Level Indianapolis Center
07:39PM 38.9097 -80.3739 269° West 124 143 8,100  Level Indianapolis Center
07:40PM 38.9083 -80.4194 268° West 126 145 8,100 -49 Level Indianapolis Center
07:41PM 38.9069 -80.4656 268° West 129 148 8,000 -49 Descending Indianapolis Center
07:42PM 38.9042 -80.5100 265° West 127 146 8,000 49 Level Indianapolis Center
07:43PM 38.9042 -80.5569 270° West 128 147 8,100 49 Climbing Indianapolis Center
07:44PM 38.9053 -80.6119 272° West 130 150 8,100  Level Indianapolis Center
07:45PM 38.9053 -80.6594 270° West 132 152 8,100  Level Indianapolis Center
07:46PM 38.9047 -80.7064 269° West 132 152 8,100  Level Indianapolis Center
07:47PM 38.9031 -80.7525 267° West 130 150 8,100  Level Indianapolis Center
07:48PM 38.9014 -80.7981 267° West 130 150 8,100  Level Indianapolis Center
07:49PM 38.9011 -80.8456 270° West 132 152 8,100  Level Indianapolis Center
07:50PM 38.9000 -80.8917 268° West 131 151 8,100  Level Indianapolis Center
07:51PM 38.8992 -80.9394 269° West 132 152 8,100  Level Indianapolis Center
07:52PM 38.8975 -80.9858 267° West 131 151 8,100  Level Indianapolis Center
07:53PM 38.8958 -81.0333 267° West 132 152 8,100  Level Indianapolis Center
07:54PM 38.8947 -81.0819 268° West 136 157 8,100  Level Indianapolis Center
07:55PM 38.8947 -81.1303 270° West 136 157 8,100  Level Indianapolis Center
07:56PM 38.8942 -81.1783 269° West 136 157 8,100  Level Indianapolis Center
07:57PM 38.8925 -81.2369 268° West 137 158 8,100 -49 Level Indianapolis Center
07:58PM 38.8914 -81.2856 268° West 137 158 8,000 -49 Descending Indianapolis Center
07:59PM 38.8903 -81.3333 268° West 136 157 8,000  Level Indianapolis Center
08:00PM 38.8889 -81.3806 268° West 134 154 8,000  Level Indianapolis Center
08:01PM 38.8878 -81.4278 268° West 132 152 8,000  Level Indianapolis Center
08:02PM 38.8867 -81.4747 268° West 132 152 8,000  Level Indianapolis Center
08:03PM 38.8850 -81.5222 267° West 133 153 8,000  Level Indianapolis Center
08:04PM 38.8839 -81.5703 268° West 134 154 8,000  Level Indianapolis Center
08:05PM 38.8819 -81.6183 267° West 136 157 8,000  Level Indianapolis Center
08:06PM 38.8811 -81.6658 269° West 134 154 8,000  Level Indianapolis Center
08:07PM 38.8803 -81.7139 269° West 135 155 8,000  Level Indianapolis Center
08:08PM 38.8783 -81.7708 268° West 134 154 8,000  Level Indianapolis Center
08:09PM 38.8764 -81.8197 267° West 136 157 8,000  Level Indianapolis Center
08:10PM 38.8753 -81.8675 268° West 135 155 8,000  Level Indianapolis Center
08:11PM 38.8733 -81.9158 267° West 135 155 8,000  Level Indianapolis Center
08:12PM 38.8708 -81.9628 266° West 133 153 8,000 -197 Level Indianapolis Center
08:13PM 38.8528 -82.0050 241° Southwest 134 154 7,600 -443 Descending Indianapolis Center
08:14PM 38.8381 -82.0531 249° West 145 167 7,100 -443 Descending Indianapolis Center
08:15PM 38.8244 -82.1014 250° West 145 167 6,700 -443 Descending Indianapolis Center
08:16PM 38.8092 -82.1519 249° West 152 175 6,200 -446 Descending Indianapolis Center
08:17PM 38.7944 -82.2033 250° West 153 176 5,800 -595 Descending Indianapolis Center
08:18PM 38.7806 -82.2553 251° West 153 176 5,000 -787 Descending Indianapolis Center
08:20PM 38.7650 -82.3058 248° West 152 175 4,200 -836 Descending Indianapolis Center
08:21PM 38.7492 -82.3564 248° West 153 176 3,300 -590 Descending Indianapolis Center
08:22PM 38.7344 -82.4061 249° West 151 174 3,000 -148 Descending Indianapolis Center
08:23PM 38.7189 -82.4614 250° West 140 161 3,000  Level Indianapolis Center
08:24PM 38.7044 -82.5075 248° West 140 161 3,000  Level Indianapolis Center
08:25PM 38.6906 -82.5531 249° West 139 160 3,000  Level Indianapolis Center
08:26PM 38.6772 -82.6000 250° West 139 160 3,000  Level Indianapolis Center
08:27PM 38.6631 -82.6464 249° West 140 161 3,000  Level Indianapolis Center
08:28PM 38.6481 -82.6928 248° West 140 161 3,000  Level Indianapolis Center
08:29PM 38.6342 -82.7397 249° West 141 162 3,000  Level Indianapolis Center
08:30PM 38.6322 -82.7922 267° West 137 158 3,000  Level Indianapolis Center
08:31PM 38.6392 -82.8406 280° West 141 162 3,000  Level Indianapolis Center
08:32PM 38.6697 -82.8511 345° North 137 158 3,000  Level Indianapolis Center